sensor_id;sensor_type;location;lat;lon;timestamp;P1;durP1;ratioP1;P2;durP2;ratioP2
7669;SDS011;3877;42.562;27.636;2023-02-17T00:01:17;26.53;;;18.83;;
7669;SDS011;3877;42.562;27.636;2023-02-17T00:03:45;27.53;;;18.73;;
7669;SDS011;3877;42.562;27.636;2023-02-17T00:06:14;27.47;;;19.50;;
7669;SDS011;3877;42.562;27.636;2023-02-17T00:08:40;28.30;;;18.63;;
7669;SDS011;3877;42.562;27.636;2023-02-17T00:11:07;27.60;;;20.03;;
7669;SDS011;3877;42.562;27.636;2023-02-17T00:13:34;32.83;;;18.03;;
7669;SDS011;3877;42.562;27.636;2023-02-17T00:16:04;27.00;;;19.23;;
7669;SDS011;3877;42.562;27.636;2023-02-17T00:18:33;28.23;;;18.07;;
7669;SDS011;3877;42.562;27.636;2023-02-17T00:21:00;28.43;;;17.03;;
7669;SDS011;3877;42.562;27.636;2023-02-17T00:23:27;27.63;;;17.87;;
7669;SDS011;3877;42.562;27.636;2023-02-17T00:25:53;26.43;;;16.63;;
7669;SDS011;3877;42.562;27.636;2023-02-17T00:28:20;25.07;;;17.00;;
7669;SDS011;3877;42.562;27.636;2023-02-17T00:30:47;27.90;;;17.63;;
7669;SDS011;3877;42.562;27.636;2023-02-17T00:33:14;28.73;;;18.37;;
7669;SDS011;3877;42.562;27.636;2023-02-17T00:35:42;28.37;;;18.30;;
7669;SDS011;3877;42.562;27.636;2023-02-17T00:38:09;28.10;;;18.37;;
7669;SDS011;3877;42.562;27.636;2023-02-17T00:40:36;27.33;;;18.67;;
7669;SDS011;3877;42.562;27.636;2023-02-17T00:43:03;35.90;;;21.03;;
7669;SDS011;3877;42.562;27.636;2023-02-17T00:45:30;29.33;;;20.03;;
7669;SDS011;3877;42.562;27.636;2023-02-17T00:47:56;29.67;;;19.30;;
7669;SDS011;3877;42.562;27.636;2023-02-17T00:50:23;29.43;;;19.07;;
7669;SDS011;3877;42.562;27.636;2023-02-17T00:52:51;30.27;;;19.63;;
7669;SDS011;3877;42.562;27.636;2023-02-17T00:55:18;32.20;;;19.40;;
7669;SDS011;3877;42.562;27.636;2023-02-17T00:57:45;31.80;;;19.73;;
7669;SDS011;3877;42.562;27.636;2023-02-17T01:00:12;32.97;;;20.40;;
7669;SDS011;3877;42.562;27.636;2023-02-17T01:02:40;30.43;;;19.63;;
7669;SDS011;3877;42.562;27.636;2023-02-17T01:05:06;29.90;;;19.00;;
7669;SDS011;3877;42.562;27.636;2023-02-17T01:07:33;33.30;;;20.87;;
7669;SDS011;3877;42.562;27.636;2023-02-17T01:10:02;31.00;;;20.77;;
7669;SDS011;3877;42.562;27.636;2023-02-17T01:12:29;32.30;;;18.53;;
7669;SDS011;3877;42.562;27.636;2023-02-17T01:14:56;35.97;;;22.07;;
7669;SDS011;3877;42.562;27.636;2023-02-17T01:17:23;35.17;;;21.27;;
7669;SDS011;3877;42.562;27.636;2023-02-17T01:19:50;34.43;;;20.87;;
7669;SDS011;3877;42.562;27.636;2023-02-17T01:22:17;30.23;;;18.40;;
7669;SDS011;3877;42.562;27.636;2023-02-17T01:24:43;33.00;;;21.13;;
7669;SDS011;3877;42.562;27.636;2023-02-17T01:27:12;34.93;;;22.20;;
7669;SDS011;3877;42.562;27.636;2023-02-17T01:29:39;33.97;;;22.27;;
7669;SDS011;3877;42.562;27.636;2023-02-17T01:32:06;31.57;;;20.83;;
7669;SDS011;3877;42.562;27.636;2023-02-17T01:34:32;33.37;;;22.43;;
7669;SDS011;3877;42.562;27.636;2023-02-17T01:36:59;33.53;;;21.37;;
7669;SDS011;3877;42.562;27.636;2023-02-17T01:39:26;42.03;;;21.63;;
7669;SDS011;3877;42.562;27.636;2023-02-17T01:41:53;36.37;;;22.60;;
7669;SDS011;3877;42.562;27.636;2023-02-17T01:44:22;38.10;;;23.27;;
7669;SDS011;3877;42.562;27.636;2023-02-17T01:46:49;38.77;;;22.77;;
7669;SDS011;3877;42.562;27.636;2023-02-17T01:49:17;35.90;;;24.03;;
7669;SDS011;3877;42.562;27.636;2023-02-17T01:51:46;35.87;;;22.40;;
7669;SDS011;3877;42.562;27.636;2023-02-17T01:54:16;35.87;;;23.40;;
7669;SDS011;3877;42.562;27.636;2023-02-17T01:56:45;41.73;;;22.97;;
7669;SDS011;3877;42.562;27.636;2023-02-17T01:59:14;39.40;;;23.40;;
7669;SDS011;3877;42.562;27.636;2023-02-17T02:01:44;38.13;;;23.43;;
7669;SDS011;3877;42.562;27.636;2023-02-17T02:04:11;38.83;;;24.03;;
7669;SDS011;3877;42.562;27.636;2023-02-17T02:06:39;36.97;;;21.40;;
7669;SDS011;3877;42.562;27.636;2023-02-17T02:09:06;37.17;;;22.63;;
7669;SDS011;3877;42.562;27.636;2023-02-17T02:11:34;35.27;;;22.57;;
7669;SDS011;3877;42.562;27.636;2023-02-17T02:14:02;35.33;;;24.10;;
7669;SDS011;3877;42.562;27.636;2023-02-17T02:16:32;38.07;;;24.20;;
7669;SDS011;3877;42.562;27.636;2023-02-17T02:19:05;34.97;;;23.43;;
7669;SDS011;3877;42.562;27.636;2023-02-17T02:24:34;35.77;;;23.97;;
7669;SDS011;3877;42.562;27.636;2023-02-17T02:27:14;37.23;;;23.47;;
7669;SDS011;3877;42.562;27.636;2023-02-17T02:30:03;41.40;;;23.33;;
7669;SDS011;3877;42.562;27.636;2023-02-17T02:35:17;41.67;;;24.27;;
7669;SDS011;3877;42.562;27.636;2023-02-17T02:37:46;39.10;;;22.70;;
7669;SDS011;3877;42.562;27.636;2023-02-17T02:40:14;33.20;;;20.60;;
7669;SDS011;3877;42.562;27.636;2023-02-17T02:42:42;32.70;;;20.70;;
7669;SDS011;3877;42.562;27.636;2023-02-17T02:45:10;36.63;;;22.40;;
7669;SDS011;3877;42.562;27.636;2023-02-17T02:47:44;34.47;;;20.97;;
7669;SDS011;3877;42.562;27.636;2023-02-17T02:50:12;37.03;;;22.47;;
7669;SDS011;3877;42.562;27.636;2023-02-17T02:52:41;41.67;;;25.03;;
7669;SDS011;3877;42.562;27.636;2023-02-17T02:55:13;34.10;;;22.43;;
7669;SDS011;3877;42.562;27.636;2023-02-17T02:57:43;36.40;;;23.10;;
7669;SDS011;3877;42.562;27.636;2023-02-17T03:00:17;34.53;;;22.17;;
7669;SDS011;3877;42.562;27.636;2023-02-17T03:02:47;35.80;;;23.73;;
7669;SDS011;3877;42.562;27.636;2023-02-17T03:05:18;37.77;;;23.53;;
7669;SDS011;3877;42.562;27.636;2023-02-17T03:07:51;39.43;;;24.60;;
7669;SDS011;3877;42.562;27.636;2023-02-17T03:10:20;44.57;;;25.37;;
7669;SDS011;3877;42.562;27.636;2023-02-17T03:12:47;39.40;;;24.80;;
7669;SDS011;3877;42.562;27.636;2023-02-17T03:15:14;38.27;;;23.63;;
7669;SDS011;3877;42.562;27.636;2023-02-17T03:17:42;38.07;;;24.00;;
7669;SDS011;3877;42.562;27.636;2023-02-17T03:20:09;33.90;;;22.67;;
7669;SDS011;3877;42.562;27.636;2023-02-17T03:22:37;34.00;;;22.80;;
7669;SDS011;3877;42.562;27.636;2023-02-17T03:25:07;34.03;;;23.00;;
7669;SDS011;3877;42.562;27.636;2023-02-17T03:27:34;34.30;;;22.40;;
7669;SDS011;3877;42.562;27.636;2023-02-17T03:30:01;38.70;;;22.93;;
7669;SDS011;3877;42.562;27.636;2023-02-17T03:32:27;36.83;;;23.23;;
7669;SDS011;3877;42.562;27.636;2023-02-17T03:34:54;36.93;;;24.40;;
7669;SDS011;3877;42.562;27.636;2023-02-17T03:37:21;36.73;;;24.77;;
7669;SDS011;3877;42.562;27.636;2023-02-17T03:39:48;37.10;;;24.63;;
7669;SDS011;3877;42.562;27.636;2023-02-17T03:42:16;47.43;;;23.30;;
7669;SDS011;3877;42.562;27.636;2023-02-17T03:44:43;37.60;;;24.67;;
7669;SDS011;3877;42.562;27.636;2023-02-17T03:47:10;37.67;;;23.60;;
7669;SDS011;3877;42.562;27.636;2023-02-17T03:49:36;37.10;;;24.60;;
7669;SDS011;3877;42.562;27.636;2023-02-17T03:52:03;38.73;;;24.93;;
7669;SDS011;3877;42.562;27.636;2023-02-17T03:54:30;38.33;;;25.17;;
7669;SDS011;3877;42.562;27.636;2023-02-17T03:56:57;43.17;;;25.43;;
7669;SDS011;3877;42.562;27.636;2023-02-17T03:59:27;41.40;;;24.90;;
7669;SDS011;3877;42.562;27.636;2023-02-17T04:01:54;38.40;;;24.73;;
7669;SDS011;3877;42.562;27.636;2023-02-17T04:04:21;41.70;;;25.23;;
7669;SDS011;3877;42.562;27.636;2023-02-17T04:06:48;37.77;;;23.67;;
7669;SDS011;3877;42.562;27.636;2023-02-17T04:09:14;42.07;;;26.13;;
7669;SDS011;3877;42.562;27.636;2023-02-17T04:11:41;35.73;;;23.73;;
7669;SDS011;3877;42.562;27.636;2023-02-17T04:14:08;39.83;;;25.37;;
7669;SDS011;3877;42.562;27.636;2023-02-17T04:16:36;38.80;;;25.90;;
7669;SDS011;3877;42.562;27.636;2023-02-17T04:19:04;38.27;;;24.40;;
7669;SDS011;3877;42.562;27.636;2023-02-17T04:21:30;35.70;;;21.43;;
7669;SDS011;3877;42.562;27.636;2023-02-17T04:23:58;30.73;;;18.53;;
7669;SDS011;3877;42.562;27.636;2023-02-17T04:26:25;41.33;;;24.10;;
7669;SDS011;3877;42.562;27.636;2023-02-17T04:28:52;40.17;;;23.87;;
7669;SDS011;3877;42.562;27.636;2023-02-17T04:31:19;40.00;;;24.07;;
7669;SDS011;3877;42.562;27.636;2023-02-17T04:33:47;42.50;;;24.67;;
7669;SDS011;3877;42.562;27.636;2023-02-17T04:36:14;37.77;;;22.83;;
7669;SDS011;3877;42.562;27.636;2023-02-17T04:38:41;42.50;;;25.63;;
7669;SDS011;3877;42.562;27.636;2023-02-17T04:41:08;40.07;;;25.03;;
7669;SDS011;3877;42.562;27.636;2023-02-17T04:43:35;42.63;;;24.07;;
7669;SDS011;3877;42.562;27.636;2023-02-17T04:46:02;39.03;;;25.43;;
7669;SDS011;3877;42.562;27.636;2023-02-17T04:48:29;40.50;;;23.57;;
7669;SDS011;3877;42.562;27.636;2023-02-17T04:50:57;41.57;;;25.97;;
7669;SDS011;3877;42.562;27.636;2023-02-17T04:53:24;44.37;;;26.57;;
7669;SDS011;3877;42.562;27.636;2023-02-17T04:55:51;41.43;;;24.23;;
7669;SDS011;3877;42.562;27.636;2023-02-17T04:58:18;42.17;;;23.47;;
7669;SDS011;3877;42.562;27.636;2023-02-17T05:00:46;45.30;;;27.10;;
7669;SDS011;3877;42.562;27.636;2023-02-17T05:03:13;47.90;;;28.37;;
7669;SDS011;3877;42.562;27.636;2023-02-17T05:05:40;44.80;;;25.97;;
7669;SDS011;3877;42.562;27.636;2023-02-17T05:08:08;44.03;;;26.87;;
7669;SDS011;3877;42.562;27.636;2023-02-17T05:10:34;43.77;;;28.67;;
7669;SDS011;3877;42.562;27.636;2023-02-17T05:13:01;41.43;;;26.87;;
7669;SDS011;3877;42.562;27.636;2023-02-17T05:15:28;36.10;;;23.40;;
7669;SDS011;3877;42.562;27.636;2023-02-17T05:17:55;53.00;;;29.77;;
7669;SDS011;3877;42.562;27.636;2023-02-17T05:20:22;52.30;;;26.83;;
7669;SDS011;3877;42.562;27.636;2023-02-17T05:22:48;43.70;;;27.50;;
7669;SDS011;3877;42.562;27.636;2023-02-17T05:25:17;48.10;;;29.43;;
7669;SDS011;3877;42.562;27.636;2023-02-17T05:27:43;43.30;;;26.97;;
7669;SDS011;3877;42.562;27.636;2023-02-17T05:30:11;42.87;;;27.10;;
7669;SDS011;3877;42.562;27.636;2023-02-17T05:32:38;37.00;;;23.20;;
7669;SDS011;3877;42.562;27.636;2023-02-17T05:35:05;42.30;;;27.03;;
7669;SDS011;3877;42.562;27.636;2023-02-17T05:37:32;43.27;;;27.00;;
7669;SDS011;3877;42.562;27.636;2023-02-17T05:39:58;42.60;;;27.67;;
7669;SDS011;3877;42.562;27.636;2023-02-17T05:42:27;41.10;;;27.53;;
7669;SDS011;3877;42.562;27.636;2023-02-17T05:44:53;41.60;;;27.10;;
7669;SDS011;3877;42.562;27.636;2023-02-17T05:47:20;42.70;;;28.80;;
7669;SDS011;3877;42.562;27.636;2023-02-17T05:49:47;53.90;;;30.37;;
7669;SDS011;3877;42.562;27.636;2023-02-17T05:52:14;45.80;;;27.73;;
7669;SDS011;3877;42.562;27.636;2023-02-17T05:54:42;45.53;;;29.43;;
7669;SDS011;3877;42.562;27.636;2023-02-17T05:57:09;40.13;;;26.27;;
7669;SDS011;3877;42.562;27.636;2023-02-17T05:59:37;42.17;;;28.90;;
7669;SDS011;3877;42.562;27.636;2023-02-17T06:02:04;42.10;;;26.43;;
7669;SDS011;3877;42.562;27.636;2023-02-17T06:04:31;44.27;;;28.33;;
7669;SDS011;3877;42.562;27.636;2023-02-17T06:06:58;43.37;;;27.07;;
7669;SDS011;3877;42.562;27.636;2023-02-17T06:09:24;39.37;;;25.63;;
7669;SDS011;3877;42.562;27.636;2023-02-17T06:11:51;40.00;;;26.77;;
7669;SDS011;3877;42.562;27.636;2023-02-17T06:14:18;41.00;;;25.63;;
7669;SDS011;3877;42.562;27.636;2023-02-17T06:16:46;36.83;;;20.80;;
7669;SDS011;3877;42.562;27.636;2023-02-17T06:19:13;44.97;;;26.03;;
7669;SDS011;3877;42.562;27.636;2023-02-17T06:21:40;45.73;;;26.17;;
7669;SDS011;3877;42.562;27.636;2023-02-17T06:24:06;39.77;;;27.33;;
7669;SDS011;3877;42.562;27.636;2023-02-17T06:26:33;39.47;;;24.23;;
7669;SDS011;3877;42.562;27.636;2023-02-17T06:29:00;42.33;;;27.97;;
7669;SDS011;3877;42.562;27.636;2023-02-17T06:31:27;42.23;;;26.57;;
7669;SDS011;3877;42.562;27.636;2023-02-17T06:33:55;44.10;;;27.90;;
7669;SDS011;3877;42.562;27.636;2023-02-17T06:36:22;40.53;;;26.43;;
7669;SDS011;3877;42.562;27.636;2023-02-17T06:38:49;39.17;;;25.13;;
7669;SDS011;3877;42.562;27.636;2023-02-17T06:41:15;39.93;;;27.97;;
7669;SDS011;3877;42.562;27.636;2023-02-17T06:43:42;37.70;;;26.07;;
7669;SDS011;3877;42.562;27.636;2023-02-17T06:46:09;54.07;;;34.57;;
7669;SDS011;3877;42.562;27.636;2023-02-17T06:48:36;40.60;;;25.93;;
7669;SDS011;3877;42.562;27.636;2023-02-17T06:51:04;39.23;;;26.13;;
7669;SDS011;3877;42.562;27.636;2023-02-17T06:53:31;41.77;;;25.97;;
7669;SDS011;3877;42.562;27.636;2023-02-17T06:55:59;42.27;;;26.93;;
7669;SDS011;3877;42.562;27.636;2023-02-17T06:58:26;37.50;;;26.10;;
7669;SDS011;3877;42.562;27.636;2023-02-17T07:00:53;43.27;;;26.40;;
7669;SDS011;3877;42.562;27.636;2023-02-17T07:03:19;41.93;;;25.87;;
7669;SDS011;3877;42.562;27.636;2023-02-17T07:05:46;39.00;;;25.87;;
7669;SDS011;3877;42.562;27.636;2023-02-17T07:08:14;41.80;;;25.87;;
7669;SDS011;3877;42.562;27.636;2023-02-17T07:10:41;41.03;;;26.90;;
7669;SDS011;3877;42.562;27.636;2023-02-17T07:13:07;41.07;;;26.57;;
7669;SDS011;3877;42.562;27.636;2023-02-17T07:15:34;41.37;;;26.97;;
7669;SDS011;3877;42.562;27.636;2023-02-17T07:18:01;39.43;;;26.43;;
7669;SDS011;3877;42.562;27.636;2023-02-17T07:20:28;42.17;;;26.80;;
7669;SDS011;3877;42.562;27.636;2023-02-17T07:22:56;42.50;;;28.70;;
7669;SDS011;3877;42.562;27.636;2023-02-17T07:25:24;40.83;;;26.80;;
7669;SDS011;3877;42.562;27.636;2023-02-17T07:27:51;44.17;;;25.27;;
7669;SDS011;3877;42.562;27.636;2023-02-17T07:30:18;41.93;;;27.20;;
7669;SDS011;3877;42.562;27.636;2023-02-17T07:32:45;44.13;;;28.43;;
7669;SDS011;3877;42.562;27.636;2023-02-17T07:35:12;39.97;;;26.97;;
7669;SDS011;3877;42.562;27.636;2023-02-17T07:37:38;39.10;;;25.47;;
7669;SDS011;3877;42.562;27.636;2023-02-17T07:40:06;41.47;;;25.97;;
7669;SDS011;3877;42.562;27.636;2023-02-17T07:42:34;38.00;;;25.40;;
7669;SDS011;3877;42.562;27.636;2023-02-17T07:45:01;36.80;;;24.27;;
7669;SDS011;3877;42.562;27.636;2023-02-17T07:47:27;37.47;;;24.57;;
7669;SDS011;3877;42.562;27.636;2023-02-17T07:49:54;38.47;;;23.43;;
7669;SDS011;3877;42.562;27.636;2023-02-17T07:52:21;38.10;;;25.93;;
7669;SDS011;3877;42.562;27.636;2023-02-17T07:54:48;35.23;;;23.43;;
7669;SDS011;3877;42.562;27.636;2023-02-17T07:57:15;35.20;;;22.27;;
7669;SDS011;3877;42.562;27.636;2023-02-17T07:59:43;32.10;;;21.73;;
7669;SDS011;3877;42.562;27.636;2023-02-17T08:02:11;33.87;;;22.27;;
7669;SDS011;3877;42.562;27.636;2023-02-17T08:04:38;31.20;;;18.77;;
7669;SDS011;3877;42.562;27.636;2023-02-17T08:07:05;33.03;;;22.80;;
7669;SDS011;3877;42.562;27.636;2023-02-17T08:09:31;36.27;;;21.73;;
7669;SDS011;3877;42.562;27.636;2023-02-17T08:12:16;34.27;;;22.13;;
7669;SDS011;3877;42.562;27.636;2023-02-17T08:15:02;30.07;;;20.97;;
7669;SDS011;3877;42.562;27.636;2023-02-17T08:17:29;33.67;;;23.33;;
7669;SDS011;3877;42.562;27.636;2023-02-17T08:19:55;33.33;;;22.57;;
7669;SDS011;3877;42.562;27.636;2023-02-17T08:22:22;35.37;;;21.60;;
7669;SDS011;3877;42.562;27.636;2023-02-17T08:24:49;31.20;;;21.93;;
7669;SDS011;3877;42.562;27.636;2023-02-17T08:27:17;34.73;;;21.37;;
7669;SDS011;3877;42.562;27.636;2023-02-17T08:29:44;28.77;;;17.27;;
7669;SDS011;3877;42.562;27.636;2023-02-17T08:32:12;29.10;;;19.87;;
7669;SDS011;3877;42.562;27.636;2023-02-17T08:34:39;30.27;;;20.70;;
7669;SDS011;3877;42.562;27.636;2023-02-17T08:37:06;32.40;;;21.30;;
7669;SDS011;3877;42.562;27.636;2023-02-17T08:39:34;32.60;;;21.87;;
7669;SDS011;3877;42.562;27.636;2023-02-17T08:42:01;31.90;;;21.40;;
7669;SDS011;3877;42.562;27.636;2023-02-17T08:44:28;32.33;;;22.23;;
7669;SDS011;3877;42.562;27.636;2023-02-17T08:46:55;29.23;;;21.33;;
7669;SDS011;3877;42.562;27.636;2023-02-17T08:49:24;35.20;;;23.07;;
7669;SDS011;3877;42.562;27.636;2023-02-17T08:51:51;32.43;;;23.17;;
7669;SDS011;3877;42.562;27.636;2023-02-17T08:54:18;34.27;;;23.60;;
7669;SDS011;3877;42.562;27.636;2023-02-17T08:56:45;32.90;;;22.73;;
7669;SDS011;3877;42.562;27.636;2023-02-17T08:59:12;36.87;;;24.53;;
7669;SDS011;3877;42.562;27.636;2023-02-17T09:01:39;33.37;;;23.57;;
7669;SDS011;3877;42.562;27.636;2023-02-17T09:04:07;32.80;;;21.07;;
7669;SDS011;3877;42.562;27.636;2023-02-17T09:06:37;29.97;;;21.20;;
7669;SDS011;3877;42.562;27.636;2023-02-17T09:09:04;26.73;;;18.50;;
7669;SDS011;3877;42.562;27.636;2023-02-17T09:11:31;29.03;;;19.87;;
7669;SDS011;3877;42.562;27.636;2023-02-17T09:13:58;32.47;;;21.53;;
7669;SDS011;3877;42.562;27.636;2023-02-17T09:16:25;32.20;;;20.73;;
7669;SDS011;3877;42.562;27.636;2023-02-17T09:18:53;34.17;;;19.60;;
7669;SDS011;3877;42.562;27.636;2023-02-17T09:21:20;33.17;;;20.93;;
7669;SDS011;3877;42.562;27.636;2023-02-17T09:23:48;34.30;;;22.87;;
7669;SDS011;3877;42.562;27.636;2023-02-17T09:26:16;28.73;;;20.77;;
7669;SDS011;3877;42.562;27.636;2023-02-17T09:28:43;31.33;;;20.63;;
7669;SDS011;3877;42.562;27.636;2023-02-17T09:31:10;25.30;;;19.20;;
7669;SDS011;3877;42.562;27.636;2023-02-17T09:33:37;27.17;;;20.03;;
7669;SDS011;3877;42.562;27.636;2023-02-17T09:36:04;26.50;;;20.37;;
7669;SDS011;3877;42.562;27.636;2023-02-17T09:38:31;26.37;;;19.03;;
7669;SDS011;3877;42.562;27.636;2023-02-17T09:41:00;23.57;;;18.30;;
7669;SDS011;3877;42.562;27.636;2023-02-17T09:43:29;31.23;;;19.50;;
7669;SDS011;3877;42.562;27.636;2023-02-17T09:45:58;29.77;;;19.67;;
7669;SDS011;3877;42.562;27.636;2023-02-17T09:48:26;28.93;;;19.03;;
7669;SDS011;3877;42.562;27.636;2023-02-17T09:50:54;29.57;;;19.87;;
7669;SDS011;3877;42.562;27.636;2023-02-17T09:53:23;26.33;;;19.80;;
7669;SDS011;3877;42.562;27.636;2023-02-17T09:55:52;25.20;;;19.20;;
7669;SDS011;3877;42.562;27.636;2023-02-17T09:58:22;25.50;;;17.10;;
7669;SDS011;3877;42.562;27.636;2023-02-17T10:00:53;26.63;;;18.73;;
7669;SDS011;3877;42.562;27.636;2023-02-17T10:03:23;29.30;;;15.73;;
7669;SDS011;3877;42.562;27.636;2023-02-17T10:05:50;20.73;;;14.60;;
7669;SDS011;3877;42.562;27.636;2023-02-17T10:08:20;19.57;;;12.80;;
7669;SDS011;3877;42.562;27.636;2023-02-17T10:10:49;18.00;;;12.20;;
7669;SDS011;3877;42.562;27.636;2023-02-17T10:13:18;15.60;;;11.60;;
7669;SDS011;3877;42.562;27.636;2023-02-17T10:15:48;17.67;;;10.70;;
7669;SDS011;3877;42.562;27.636;2023-02-17T10:18:18;16.67;;;10.90;;
7669;SDS011;3877;42.562;27.636;2023-02-17T10:20:47;16.47;;;11.80;;
7669;SDS011;3877;42.562;27.636;2023-02-17T10:23:16;15.63;;;10.80;;
7669;SDS011;3877;42.562;27.636;2023-02-17T10:25:48;17.43;;;11.43;;
7669;SDS011;3877;42.562;27.636;2023-02-17T10:28:17;15.13;;;10.20;;
7669;SDS011;3877;42.562;27.636;2023-02-17T10:30:46;16.30;;;10.70;;
7669;SDS011;3877;42.562;27.636;2023-02-17T10:33:16;15.50;;;10.80;;
7669;SDS011;3877;42.562;27.636;2023-02-17T10:35:49;25.47;;;11.20;;
7669;SDS011;3877;42.562;27.636;2023-02-17T10:38:17;18.70;;;11.67;;
7669;SDS011;3877;42.562;27.636;2023-02-17T10:40:45;18.97;;;11.83;;
7669;SDS011;3877;42.562;27.636;2023-02-17T10:43:14;23.60;;;13.70;;
7669;SDS011;3877;42.562;27.636;2023-02-17T10:45:44;17.70;;;10.83;;
7669;SDS011;3877;42.562;27.636;2023-02-17T10:48:16;17.37;;;11.50;;
7669;SDS011;3877;42.562;27.636;2023-02-17T10:50:44;13.43;;;10.10;;
7669;SDS011;3877;42.562;27.636;2023-02-17T10:53:12;22.93;;;11.40;;
7669;SDS011;3877;42.562;27.636;2023-02-17T10:55:41;16.00;;;11.17;;
7669;SDS011;3877;42.562;27.636;2023-02-17T10:58:11;15.97;;;9.87;;
7669;SDS011;3877;42.562;27.636;2023-02-17T11:00:40;17.37;;;11.30;;
7669;SDS011;3877;42.562;27.636;2023-02-17T11:03:18;16.00;;;10.53;;
7669;SDS011;3877;42.562;27.636;2023-02-17T11:05:50;16.33;;;11.23;;
7669;SDS011;3877;42.562;27.636;2023-02-17T11:08:22;15.30;;;10.50;;
7669;SDS011;3877;42.562;27.636;2023-02-17T11:11:00;18.47;;;10.53;;
7669;SDS011;3877;42.562;27.636;2023-02-17T11:13:29;13.77;;;10.30;;
7669;SDS011;3877;42.562;27.636;2023-02-17T11:15:57;19.90;;;10.80;;
7669;SDS011;3877;42.562;27.636;2023-02-17T11:18:30;13.53;;;9.93;;
7669;SDS011;3877;42.562;27.636;2023-02-17T11:21:06;16.07;;;11.00;;
7669;SDS011;3877;42.562;27.636;2023-02-17T11:23:45;13.23;;;10.57;;
7669;SDS011;3877;42.562;27.636;2023-02-17T11:26:16;14.17;;;10.33;;
7669;SDS011;3877;42.562;27.636;2023-02-17T11:28:42;13.77;;;10.27;;
7669;SDS011;3877;42.562;27.636;2023-02-17T11:31:20;15.17;;;10.83;;
7669;SDS011;3877;42.562;27.636;2023-02-17T11:33:48;16.23;;;11.10;;
7669;SDS011;3877;42.562;27.636;2023-02-17T11:36:20;13.27;;;10.53;;
7669;SDS011;3877;42.562;27.636;2023-02-17T11:38:47;18.10;;;11.07;;
7669;SDS011;3877;42.562;27.636;2023-02-17T11:41:14;16.30;;;10.30;;
7669;SDS011;3877;42.562;27.636;2023-02-17T11:43:49;15.73;;;10.43;;
7669;SDS011;3877;42.562;27.636;2023-02-17T11:46:19;18.83;;;10.47;;
7669;SDS011;3877;42.562;27.636;2023-02-17T11:49:01;14.40;;;9.97;;
7669;SDS011;3877;42.562;27.636;2023-02-17T11:51:32;12.67;;;9.70;;
7669;SDS011;3877;42.562;27.636;2023-02-17T11:54:02;14.33;;;10.70;;
7669;SDS011;3877;42.562;27.636;2023-02-17T11:56:32;17.10;;;10.33;;
7669;SDS011;3877;42.562;27.636;2023-02-17T11:59:10;14.67;;;10.33;;
7669;SDS011;3877;42.562;27.636;2023-02-17T12:01:55;13.70;;;10.23;;
7669;SDS011;3877;42.562;27.636;2023-02-17T12:04:25;16.83;;;10.60;;
7669;SDS011;3877;42.562;27.636;2023-02-17T12:09:43;17.47;;;10.63;;
7669;SDS011;3877;42.562;27.636;2023-02-17T12:12:15;16.27;;;11.10;;
7669;SDS011;3877;42.562;27.636;2023-02-17T12:14:46;16.43;;;10.13;;
7669;SDS011;3877;42.562;27.636;2023-02-17T12:17:16;13.63;;;10.13;;
7669;SDS011;3877;42.562;27.636;2023-02-17T12:19:49;14.07;;;10.70;;
7669;SDS011;3877;42.562;27.636;2023-02-17T12:22:22;20.80;;;11.17;;
7669;SDS011;3877;42.562;27.636;2023-02-17T12:24:57;15.47;;;10.50;;
7669;SDS011;3877;42.562;27.636;2023-02-17T12:27:31;12.90;;;9.43;;
7669;SDS011;3877;42.562;27.636;2023-02-17T12:30:06;16.67;;;9.27;;
7669;SDS011;3877;42.562;27.636;2023-02-17T12:32:41;11.03;;;8.83;;
7669;SDS011;3877;42.562;27.636;2023-02-17T12:35:14;14.03;;;9.30;;
7669;SDS011;3877;42.562;27.636;2023-02-17T12:37:44;17.00;;;10.43;;
7669;SDS011;3877;42.562;27.636;2023-02-17T12:40:15;12.93;;;9.93;;
7669;SDS011;3877;42.562;27.636;2023-02-17T12:42:46;13.23;;;10.18;;
7669;SDS011;3877;42.562;27.636;2023-02-17T12:45:19;12.88;;;9.68;;
7669;SDS011;3877;42.562;27.636;2023-02-17T12:47:49;12.70;;;8.85;;
7669;SDS011;3877;42.562;27.636;2023-02-17T12:50:21;17.70;;;9.83;;
7669;SDS011;3877;42.562;27.636;2023-02-17T12:52:51;13.70;;;9.77;;
7669;SDS011;3877;42.562;27.636;2023-02-17T12:55:20;12.80;;;9.35;;
7669;SDS011;3877;42.562;27.636;2023-02-17T12:57:47;13.95;;;9.35;;
7669;SDS011;3877;42.562;27.636;2023-02-17T13:00:18;14.27;;;9.80;;
7669;SDS011;3877;42.562;27.636;2023-02-17T13:02:46;13.75;;;10.02;;
7669;SDS011;3877;42.562;27.636;2023-02-17T13:05:15;13.67;;;9.87;;
7669;SDS011;3877;42.562;27.636;2023-02-17T13:07:46;21.03;;;9.50;;
7669;SDS011;3877;42.562;27.636;2023-02-17T13:10:19;14.27;;;9.80;;
7669;SDS011;3877;42.562;27.636;2023-02-17T13:12:58;13.70;;;9.33;;
7669;SDS011;3877;42.562;27.636;2023-02-17T13:15:30;11.07;;;9.40;;
7669;SDS011;3877;42.562;27.636;2023-02-17T13:17:58;15.35;;;9.23;;
7669;SDS011;3877;42.562;27.636;2023-02-17T13:20:50;15.60;;;9.97;;
7669;SDS011;3877;42.562;27.636;2023-02-17T13:23:27;14.68;;;10.07;;
7669;SDS011;3877;42.562;27.636;2023-02-17T13:26:10;12.70;;;8.80;;
7669;SDS011;3877;42.562;27.636;2023-02-17T13:28:38;14.87;;;9.73;;
7669;SDS011;3877;42.562;27.636;2023-02-17T13:31:10;14.40;;;9.50;;
7669;SDS011;3877;42.562;27.636;2023-02-17T13:33:47;11.43;;;9.43;;
7669;SDS011;3877;42.562;27.636;2023-02-17T13:36:17;13.73;;;9.07;;
7669;SDS011;3877;42.562;27.636;2023-02-17T13:38:54;15.98;;;9.75;;
7669;SDS011;3877;42.562;27.636;2023-02-17T13:41:21;11.70;;;8.83;;
7669;SDS011;3877;42.562;27.636;2023-02-17T13:43:48;13.20;;;8.50;;
7669;SDS011;3877;42.562;27.636;2023-02-17T13:46:16;12.43;;;8.37;;
7669;SDS011;3877;42.562;27.636;2023-02-17T13:48:45;13.20;;;8.50;;
7669;SDS011;3877;42.562;27.636;2023-02-17T13:51:23;14.60;;;8.30;;
7669;SDS011;3877;42.562;27.636;2023-02-17T13:53:53;9.82;;;7.07;;
7669;SDS011;3877;42.562;27.636;2023-02-17T13:56:23;11.52;;;7.85;;
7669;SDS011;3877;42.562;27.636;2023-02-17T13:58:50;11.70;;;7.53;;
7669;SDS011;3877;42.562;27.636;2023-02-17T14:01:17;16.00;;;7.38;;
7669;SDS011;3877;42.562;27.636;2023-02-17T14:03:45;9.30;;;7.32;;
7669;SDS011;3877;42.562;27.636;2023-02-17T14:06:19;11.13;;;7.75;;
7669;SDS011;3877;42.562;27.636;2023-02-17T14:08:47;9.77;;;7.45;;
7669;SDS011;3877;42.562;27.636;2023-02-17T14:11:16;14.10;;;7.07;;
7669;SDS011;3877;42.562;27.636;2023-02-17T14:13:44;12.70;;;7.60;;
7669;SDS011;3877;42.562;27.636;2023-02-17T14:16:24;12.15;;;7.40;;
7669;SDS011;3877;42.562;27.636;2023-02-17T14:18:59;10.50;;;7.68;;
7669;SDS011;3877;42.562;27.636;2023-02-17T14:21:26;12.25;;;7.72;;
7669;SDS011;3877;42.562;27.636;2023-02-17T14:23:54;10.90;;;7.20;;
7669;SDS011;3877;42.562;27.636;2023-02-17T14:26:30;9.97;;;7.43;;
7669;SDS011;3877;42.562;27.636;2023-02-17T14:28:58;9.15;;;7.25;;
7669;SDS011;3877;42.562;27.636;2023-02-17T14:31:25;13.30;;;7.23;;
7669;SDS011;3877;42.562;27.636;2023-02-17T14:33:56;10.32;;;7.28;;
7669;SDS011;3877;42.562;27.636;2023-02-17T14:39:07;11.13;;;7.53;;
7669;SDS011;3877;42.562;27.636;2023-02-17T14:41:39;14.83;;;8.17;;
7669;SDS011;3877;42.562;27.636;2023-02-17T14:44:06;11.98;;;7.82;;
7669;SDS011;3877;42.562;27.636;2023-02-17T14:46:33;10.55;;;8.07;;
7669;SDS011;3877;42.562;27.636;2023-02-17T14:49:00;13.05;;;8.65;;
7669;SDS011;3877;42.562;27.636;2023-02-17T14:51:30;13.60;;;9.45;;
7669;SDS011;3877;42.562;27.636;2023-02-17T14:54:00;9.93;;;7.80;;
7669;SDS011;3877;42.562;27.636;2023-02-17T14:56:28;12.38;;;8.40;;